sensor_id;sensor_type;location;lat;lon;timestamp;temperature;humidity
20171;DHT22;10245;51.344;6.620;2022-07-09T00:02:04;20.30;81.80
20171;DHT22;10245;51.344;6.620;2022-07-09T00:04:28;20.30;81.30
20171;DHT22;10245;51.344;6.620;2022-07-09T00:06:52;20.40;81.60
20171;DHT22;10245;51.344;6.620;2022-07-09T00:09:15;20.20;81.90
20171;DHT22;10245;51.344;6.620;2022-07-09T00:11:39;20.00;81.90
20171;DHT22;10245;51.344;6.620;2022-07-09T00:14:03;20.10;81.80
20171;DHT22;10245;51.344;6.620;2022-07-09T00:16:26;20.10;81.90
20171;DHT22;10245;51.344;6.620;2022-07-09T00:18:51;20.10;82.40
20171;DHT22;10245;51.344;6.620;2022-07-09T00:21:15;20.10;82.20
20171;DHT22;10245;51.344;6.620;2022-07-09T00:23:39;20.00;82.80
20171;DHT22;10245;51.344;6.620;2022-07-09T00:26:02;20.00;82.80
20171;DHT22;10245;51.344;6.620;2022-07-09T00:28:26;20.00;82.40
20171;DHT22;10245;51.344;6.620;2022-07-09T00:30:50;19.90;82.80
20171;DHT22;10245;51.344;6.620;2022-07-09T00:33:13;19.90;82.60
20171;DHT22;10245;51.344;6.620;2022-07-09T00:35:39;19.90;82.50
20171;DHT22;10245;51.344;6.620;2022-07-09T00:38:02;19.90;82.50
20171;DHT22;10245;51.344;6.620;2022-07-09T00:40:26;20.00;82.50
20171;DHT22;10245;51.344;6.620;2022-07-09T00:42:50;20.10;82.00
20171;DHT22;10245;51.344;6.620;2022-07-09T00:45:14;19.90;82.70
20171;DHT22;10245;51.344;6.620;2022-07-09T00:47:39;19.90;83.10
20171;DHT22;10245;51.344;6.620;2022-07-09T00:50:04;19.90;82.80
20171;DHT22;10245;51.344;6.620;2022-07-09T00:52:31;19.90;82.40
20171;DHT22;10245;51.344;6.620;2022-07-09T00:54:56;19.90;82.10
20171;DHT22;10245;51.344;6.620;2022-07-09T00:57:23;19.80;82.20
20171;DHT22;10245;51.344;6.620;2022-07-09T00:59:47;20.00;81.80
20171;DHT22;10245;51.344;6.620;2022-07-09T01:02:11;20.00;82.50
20171;DHT22;10245;51.344;6.620;2022-07-09T01:04:35;19.90;82.20
20171;DHT22;10245;51.344;6.620;2022-07-09T01:07:01;19.80;82.40
20171;DHT22;10245;51.344;6.620;2022-07-09T01:09:27;19.90;83.00
20171;DHT22;10245;51.344;6.620;2022-07-09T01:11:51;19.80;83.10
20171;DHT22;10245;51.344;6.620;2022-07-09T01:14:15;19.70;83.00
20171;DHT22;10245;51.344;6.620;2022-07-09T01:16:39;19.80;82.70
20171;DHT22;10245;51.344;6.620;2022-07-09T01:19:03;19.70;83.20
20171;DHT22;10245;51.344;6.620;2022-07-09T01:21:29;19.80;82.70
20171;DHT22;10245;51.344;6.620;2022-07-09T01:23:53;19.70;82.50
20171;DHT22;10245;51.344;6.620;2022-07-09T01:26:17;19.80;82.70
20171;DHT22;10245;51.344;6.620;2022-07-09T01:28:42;19.70;83.40
20171;DHT22;10245;51.344;6.620;2022-07-09T01:31:05;19.70;83.10
20171;DHT22;10245;51.344;6.620;2022-07-09T01:33:29;19.70;83.00
20171;DHT22;10245;51.344;6.620;2022-07-09T01:35:53;19.70;83.00
20171;DHT22;10245;51.344;6.620;2022-07-09T01:38:18;19.80;82.90
20171;DHT22;10245;51.344;6.620;2022-07-09T01:40:42;19.70;82.90
20171;DHT22;10245;51.344;6.620;2022-07-09T01:43:06;19.80;83.40
20171;DHT22;10245;51.344;6.620;2022-07-09T01:45:29;19.80;83.20
20171;DHT22;10245;51.344;6.620;2022-07-09T01:47:53;19.70;83.00
20171;DHT22;10245;51.344;6.620;2022-07-09T01:50:17;19.70;83.60
20171;DHT22;10245;51.344;6.620;2022-07-09T01:52:41;19.60;83.90
20171;DHT22;10245;51.344;6.620;2022-07-09T01:55:07;19.60;84.00
20171;DHT22;10245;51.344;6.620;2022-07-09T01:57:31;19.60;83.80
20171;DHT22;10245;51.344;6.620;2022-07-09T01:59:55;19.60;84.00
20171;DHT22;10245;51.344;6.620;2022-07-09T02:02:19;19.60;84.40
20171;DHT22;10245;51.344;6.620;2022-07-09T02:04:43;19.50;84.30
20171;DHT22;10245;51.344;6.620;2022-07-09T02:07:07;19.60;84.60
20171;DHT22;10245;51.344;6.620;2022-07-09T02:09:31;19.50;84.50
20171;DHT22;10245;51.344;6.620;2022-07-09T02:11:56;19.60;84.40
20171;DHT22;10245;51.344;6.620;2022-07-09T02:14:20;19.50;84.20
20171;DHT22;10245;51.344;6.620;2022-07-09T02:16:44;19.50;84.70
20171;DHT22;10245;51.344;6.620;2022-07-09T02:19:07;19.40;84.60
20171;DHT22;10245;51.344;6.620;2022-07-09T02:21:32;19.40;84.30
20171;DHT22;10245;51.344;6.620;2022-07-09T02:23:56;19.50;84.60
20171;DHT22;10245;51.344;6.620;2022-07-09T02:26:20;19.40;84.80
20171;DHT22;10245;51.344;6.620;2022-07-09T02:28:46;19.40;84.90
20171;DHT22;10245;51.344;6.620;2022-07-09T02:31:09;19.40;84.90
20171;DHT22;10245;51.344;6.620;2022-07-09T02:33:34;19.50;84.80
20171;DHT22;10245;51.344;6.620;2022-07-09T02:35:58;19.40;85.10
20171;DHT22;10245;51.344;6.620;2022-07-09T02:38:21;19.40;85.10
20171;DHT22;10245;51.344;6.620;2022-07-09T02:40:45;19.40;85.30
20171;DHT22;10245;51.344;6.620;2022-07-09T02:43:08;19.30;85.20
20171;DHT22;10245;51.344;6.620;2022-07-09T02:45:34;19.30;85.30
20171;DHT22;10245;51.344;6.620;2022-07-09T02:47:57;19.20;85.40
20171;DHT22;10245;51.344;6.620;2022-07-09T02:50:21;19.30;85.70
20171;DHT22;10245;51.344;6.620;2022-07-09T02:52:45;19.20;85.60
20171;DHT22;10245;51.344;6.620;2022-07-09T02:55:09;19.20;85.80
20171;DHT22;10245;51.344;6.620;2022-07-09T02:57:32;19.20;86.30
20171;DHT22;10245;51.344;6.620;2022-07-09T02:59:56;19.30;86.10
20171;DHT22;10245;51.344;6.620;2022-07-09T03:02:22;19.20;85.70
20171;DHT22;10245;51.344;6.620;2022-07-09T03:04:46;19.20;86.00
20171;DHT22;10245;51.344;6.620;2022-07-09T03:07:10;19.20;86.70
20171;DHT22;10245;51.344;6.620;2022-07-09T03:09:33;19.20;86.10
20171;DHT22;10245;51.344;6.620;2022-07-09T03:11:57;19.30;86.10
20171;DHT22;10245;51.344;6.620;2022-07-09T03:14:21;19.20;86.60
20171;DHT22;10245;51.344;6.620;2022-07-09T03:16:44;19.20;86.10
20171;DHT22;10245;51.344;6.620;2022-07-09T03:19:09;19.20;86.60
20171;DHT22;10245;51.344;6.620;2022-07-09T03:21:33;19.00;86.70
20171;DHT22;10245;51.344;6.620;2022-07-09T03:23:57;19.00;86.60
20171;DHT22;10245;51.344;6.620;2022-07-09T03:26:20;18.90;87.00
20171;DHT22;10245;51.344;6.620;2022-07-09T03:28:44;19.10;86.90
20171;DHT22;10245;51.344;6.620;2022-07-09T03:31:08;18.90;88.30
20171;DHT22;10245;51.344;6.620;2022-07-09T03:33:32;18.90;87.30
20171;DHT22;10245;51.344;6.620;2022-07-09T03:35:57;19.00;87.10
20171;DHT22;10245;51.344;6.620;2022-07-09T03:38:21;19.00;87.60
20171;DHT22;10245;51.344;6.620;2022-07-09T03:40:45;18.90;87.70
20171;DHT22;10245;51.344;6.620;2022-07-09T03:43:09;18.90;87.50
20171;DHT22;10245;51.344;6.620;2022-07-09T03:45:32;18.90;87.50
20171;DHT22;10245;51.344;6.620;2022-07-09T03:47:56;18.90;87.60
20171;DHT22;10245;51.344;6.620;2022-07-09T03:50:20;18.90;87.50
20171;DHT22;10245;51.344;6.620;2022-07-09T03:52:45;18.90;87.60
20171;DHT22;10245;51.344;6.620;2022-07-09T03:55:09;18.80;87.30
20171;DHT22;10245;51.344;6.620;2022-07-09T03:57:34;18.80;87.50
20171;DHT22;10245;51.344;6.620;2022-07-09T03:59:57;18.90;87.50
20171;DHT22;10245;51.344;6.620;2022-07-09T04:02:21;18.90;87.40
20171;DHT22;10245;51.344;6.620;2022-07-09T04:04:45;18.90;87.80
20171;DHT22;10245;51.344;6.620;2022-07-09T04:07:09;18.80;88.00
20171;DHT22;10245;51.344;6.620;2022-07-09T04:09:34;18.80;88.60
20171;DHT22;10245;51.344;6.620;2022-07-09T04:11:58;18.90;88.40
20171;DHT22;10245;51.344;6.620;2022-07-09T04:14:21;18.90;88.50
20171;DHT22;10245;51.344;6.620;2022-07-09T04:16:45;18.80;88.80
20171;DHT22;10245;51.344;6.620;2022-07-09T04:19:09;18.90;88.60
20171;DHT22;10245;51.344;6.620;2022-07-09T04:21:33;18.80;88.70
20171;DHT22;10245;51.344;6.620;2022-07-09T04:23:56;19.00;88.80
20171;DHT22;10245;51.344;6.620;2022-07-09T04:26:21;18.90;89.00
20171;DHT22;10245;51.344;6.620;2022-07-09T04:28:45;18.90;89.20
20171;DHT22;10245;51.344;6.620;2022-07-09T04:31:09;19.00;88.70
20171;DHT22;10245;51.344;6.620;2022-07-09T04:33:33;19.10;88.30
20171;DHT22;10245;51.344;6.620;2022-07-09T04:35:57;19.10;88.20
20171;DHT22;10245;51.344;6.620;2022-07-09T04:38:20;19.10;88.20
20171;DHT22;10245;51.344;6.620;2022-07-09T04:40:44;19.10;88.60
20171;DHT22;10245;51.344;6.620;2022-07-09T04:43:09;19.20;88.70
20171;DHT22;10245;51.344;6.620;2022-07-09T04:45:33;19.10;89.10
20171;DHT22;10245;51.344;6.620;2022-07-09T04:47:57;19.20;89.30
20171;DHT22;10245;51.344;6.620;2022-07-09T04:50:21;19.20;88.90
20171;DHT22;10245;51.344;6.620;2022-07-09T04:52:45;19.30;88.70
20171;DHT22;10245;51.344;6.620;2022-07-09T04:55:09;19.50;88.50
20171;DHT22;10245;51.344;6.620;2022-07-09T04:57:33;19.70;87.70
20171;DHT22;10245;51.344;6.620;2022-07-09T04:59:59;19.80;87.90
20171;DHT22;10245;51.344;6.620;2022-07-09T05:02:23;19.90;87.70
20171;DHT22;10245;51.344;6.620;2022-07-09T05:04:47;20.00;88.20
20171;DHT22;10245;51.344;6.620;2022-07-09T05:07:11;20.20;86.90
20171;DHT22;10245;51.344;6.620;2022-07-09T05:09:34;20.30;86.50
20171;DHT22;10245;51.344;6.620;2022-07-09T05:11:58;20.60;86.70
20171;DHT22;10245;51.344;6.620;2022-07-09T05:14:22;20.80;85.90
20171;DHT22;10245;51.344;6.620;2022-07-09T05:16:47;21.00;84.00
20171;DHT22;10245;51.344;6.620;2022-07-09T05:19:11;20.90;84.30
20171;DHT22;10245;51.344;6.620;2022-07-09T05:21:34;20.90;84.10
20171;DHT22;10245;51.344;6.620;2022-07-09T05:23:58;21.20;83.60
20171;DHT22;10245;51.344;6.620;2022-07-09T05:26:23;21.50;83.10
20171;DHT22;10245;51.344;6.620;2022-07-09T05:28:47;21.70;82.20
20171;DHT22;10245;51.344;6.620;2022-07-09T05:31:10;21.70;82.80
20171;DHT22;10245;51.344;6.620;2022-07-09T05:33:55;21.70;82.90
20171;DHT22;10245;51.344;6.620;2022-07-09T05:36:19;21.80;82.20
20171;DHT22;10245;51.344;6.620;2022-07-09T05:38:43;22.00;81.70
20171;DHT22;10245;51.344;6.620;2022-07-09T05:41:07;21.70;82.80
20171;DHT22;10245;51.344;6.620;2022-07-09T05:43:32;21.60;82.50
20171;DHT22;10245;51.344;6.620;2022-07-09T05:45:56;21.50;83.20
20171;DHT22;10245;51.344;6.620;2022-07-09T05:48:19;21.50;83.20
20171;DHT22;10245;51.344;6.620;2022-07-09T05:50:44;21.30;84.20
20171;DHT22;10245;51.344;6.620;2022-07-09T05:53:09;21.30;84.10
20171;DHT22;10245;51.344;6.620;2022-07-09T05:55:33;21.40;84.20
20171;DHT22;10245;51.344;6.620;2022-07-09T05:57:56;21.30;84.00
20171;DHT22;10245;51.344;6.620;2022-07-09T06:00:20;21.40;84.50
20171;DHT22;10245;51.344;6.620;2022-07-09T06:02:44;21.30;84.00
20171;DHT22;10245;51.344;6.620;2022-07-09T06:05:08;21.30;83.70
20171;DHT22;10245;51.344;6.620;2022-07-09T06:07:33;21.30;84.70
20171;DHT22;10245;51.344;6.620;2022-07-09T06:09:57;21.30;84.90
20171;DHT22;10245;51.344;6.620;2022-07-09T06:12:21;21.50;84.20
20171;DHT22;10245;51.344;6.620;2022-07-09T06:14:44;21.60;84.00
20171;DHT22;10245;51.344;6.620;2022-07-09T06:17:08;22.00;84.20
20171;DHT22;10245;51.344;6.620;2022-07-09T06:19:32;22.20;83.30
20171;DHT22;10245;51.344;6.620;2022-07-09T06:21:57;22.10;82.50
20171;DHT22;10245;51.344;6.620;2022-07-09T06:24:22;21.90;82.50
20171;DHT22;10245;51.344;6.620;2022-07-09T06:26:46;22.20;82.90
20171;DHT22;10245;51.344;6.620;2022-07-09T06:29:09;22.30;82.30
20171;DHT22;10245;51.344;6.620;2022-07-09T06:31:33;22.60;82.50
20171;DHT22;10245;51.344;6.620;2022-07-09T06:33:58;22.60;80.70
20171;DHT22;10245;51.344;6.620;2022-07-09T06:36:22;22.90;82.30
20171;DHT22;10245;51.344;6.620;2022-07-09T06:38:45;23.20;80.10
20171;DHT22;10245;51.344;6.620;2022-07-09T06:41:24;23.60;78.70
20171;DHT22;10245;51.344;6.620;2022-07-09T06:43:48;23.50;78.30
20171;DHT22;10245;51.344;6.620;2022-07-09T06:46:12;23.60;75.00
20171;DHT22;10245;51.344;6.620;2022-07-09T06:48:36;23.10;73.00
20171;DHT22;10245;51.344;6.620;2022-07-09T06:51:00;23.20;74.20
20171;DHT22;10245;51.344;6.620;2022-07-09T06:53:23;23.10;74.30
20171;DHT22;10245;51.344;6.620;2022-07-09T06:55:47;23.90;74.10
20171;DHT22;10245;51.344;6.620;2022-07-09T06:58:12;24.10;72.40
20171;DHT22;10245;51.344;6.620;2022-07-09T07:00:36;24.20;72.40
20171;DHT22;10245;51.344;6.620;2022-07-09T07:03:00;24.40;72.80
20171;DHT22;10245;51.344;6.620;2022-07-09T07:05:23;24.10;71.20
20171;DHT22;10245;51.344;6.620;2022-07-09T07:07:47;23.90;71.00
20171;DHT22;10245;51.344;6.620;2022-07-09T07:10:11;23.90;72.20
20171;DHT22;10245;51.344;6.620;2022-07-09T07:12:34;24.10;73.70
20171;DHT22;10245;51.344;6.620;2022-07-09T07:14:59;24.00;73.00
20171;DHT22;10245;51.344;6.620;2022-07-09T07:17:24;24.00;75.10
20171;DHT22;10245;51.344;6.620;2022-07-09T07:19:48;24.10;74.30
20171;DHT22;10245;51.344;6.620;2022-07-09T07:22:11;24.00;73.60
20171;DHT22;10245;51.344;6.620;2022-07-09T07:24:35;23.90;73.10
20171;DHT22;10245;51.344;6.620;2022-07-09T07:26:59;23.80;73.20
20171;DHT22;10245;51.344;6.620;2022-07-09T07:29:22;23.80;74.90
20171;DHT22;10245;51.344;6.620;2022-07-09T07:31:47;23.70;74.20
20171;DHT22;10245;51.344;6.620;2022-07-09T07:34:11;23.80;73.10
20171;DHT22;10245;51.344;6.620;2022-07-09T07:36:41;24.30;73.20
20171;DHT22;10245;51.344;6.620;2022-07-09T07:39:05;24.70;74.20
20171;DHT22;10245;51.344;6.620;2022-07-09T07:41:29;24.60;72.20
20171;DHT22;10245;51.344;6.620;2022-07-09T07:43:52;24.20;72.80
20171;DHT22;10245;51.344;6.620;2022-07-09T07:46:16;24.20;73.20
20171;DHT22;10245;51.344;6.620;2022-07-09T07:48:41;24.10;71.20
20171;DHT22;10245;51.344;6.620;2022-07-09T07:51:05;24.30;69.50
20171;DHT22;10245;51.344;6.620;2022-07-09T07:53:30;24.50;73.40
20171;DHT22;10245;51.344;6.620;2022-07-09T07:55:54;24.50;70.40
20171;DHT22;10245;51.344;6.620;2022-07-09T07:58:17;24.20;71.00
20171;DHT22;10245;51.344;6.620;2022-07-09T08:00:41;24.30;72.80
20171;DHT22;10245;51.344;6.620;2022-07-09T08:03:05;23.90;71.10
20171;DHT22;10245;51.344;6.620;2022-07-09T08:05:30;23.70;71.30
20171;DHT22;10245;51.344;6.620;2022-07-09T08:07:54;23.90;69.60
20171;DHT22;10245;51.344;6.620;2022-07-09T08:10:18;23.80;72.20
20171;DHT22;10245;51.344;6.620;2022-07-09T08:12:42;24.20;73.50
20171;DHT22;10245;51.344;6.620;2022-07-09T08:15:07;24.30;70.20
20171;DHT22;10245;51.344;6.620;2022-07-09T08:17:31;24.00;69.80
20171;DHT22;10245;51.344;6.620;2022-07-09T08:19:57;23.80;69.10
20171;DHT22;10245;51.344;6.620;2022-07-09T08:22:23;23.50;72.60
20171;DHT22;10245;51.344;6.620;2022-07-09T08:24:46;23.90;72.00
20171;DHT22;10245;51.344;6.620;2022-07-09T08:27:10;23.70;72.00
20171;DHT22;10245;51.344;6.620;2022-07-09T08:29:34;23.90;67.50
20171;DHT22;10245;51.344;6.620;2022-07-09T08:31:58;23.90;66.60
20171;DHT22;10245;51.344;6.620;2022-07-09T08:34:22;23.80;70.30
20171;DHT22;10245;51.344;6.620;2022-07-09T08:36:45;23.90;69.00
20171;DHT22;10245;51.344;6.620;2022-07-09T08:39:10;24.00;69.40
20171;DHT22;10245;51.344;6.620;2022-07-09T08:41:34;23.90;67.10
20171;DHT22;10245;51.344;6.620;2022-07-09T08:43:58;24.10;70.50
20171;DHT22;10245;51.344;6.620;2022-07-09T08:46:23;24.40;70.80
20171;DHT22;10245;51.344;6.620;2022-07-09T08:48:47;24.40;67.30
20171;DHT22;10245;51.344;6.620;2022-07-09T08:51:12;24.60;69.30
20171;DHT22;10245;51.344;6.620;2022-07-09T08:53:40;24.60;69.00
20171;DHT22;10245;51.344;6.620;2022-07-09T08:56:07;24.40;70.30
20171;DHT22;10245;51.344;6.620;2022-07-09T08:58:31;24.70;70.00
20171;DHT22;10245;51.344;6.620;2022-07-09T09:00:55;24.80;67.40
20171;DHT22;10245;51.344;6.620;2022-07-09T09:03:20;24.90;68.20
20171;DHT22;10245;51.344;6.620;2022-07-09T09:05:44;25.10;65.90
20171;DHT22;10245;51.344;6.620;2022-07-09T09:08:18;25.00;66.80
20171;DHT22;10245;51.344;6.620;2022-07-09T09:10:46;25.20;69.90
20171;DHT22;10245;51.344;6.620;2022-07-09T09:13:14;25.30;68.60
20171;DHT22;10245;51.344;6.620;2022-07-09T09:15:38;25.60;63.70
20171;DHT22;10245;51.344;6.620;2022-07-09T09:18:02;25.40;67.80
20171;DHT22;10245;51.344;6.620;2022-07-09T09:20:26;25.70;63.80
20171;DHT22;10245;51.344;6.620;2022-07-09T09:22:51;25.60;68.90
20171;DHT22;10245;51.344;6.620;2022-07-09T09:25:22;25.40;66.90
20171;DHT22;10245;51.344;6.620;2022-07-09T09:27:53;25.40;67.10
20171;DHT22;10245;51.344;6.620;2022-07-09T09:30:19;25.30;69.50
20171;DHT22;10245;51.344;6.620;2022-07-09T09:32:43;25.10;64.10
20171;DHT22;10245;51.344;6.620;2022-07-09T09:35:07;25.50;65.90
20171;DHT22;10245;51.344;6.620;2022-07-09T09:37:31;25.60;65.50
20171;DHT22;10245;51.344;6.620;2022-07-09T09:39:55;25.50;64.60
20171;DHT22;10245;51.344;6.620;2022-07-09T09:42:19;25.30;65.20
20171;DHT22;10245;51.344;6.620;2022-07-09T09:44:48;25.60;63.00
20171;DHT22;10245;51.344;6.620;2022-07-09T09:47:15;25.40;61.70
20171;DHT22;10245;51.344;6.620;2022-07-09T09:49:41;25.70;64.40
20171;DHT22;10245;51.344;6.620;2022-07-09T09:52:07;25.90;64.00
20171;DHT22;10245;51.344;6.620;2022-07-09T09:54:33;25.90;63.50
20171;DHT22;10245;51.344;6.620;2022-07-09T09:56:58;26.10;63.40
20171;DHT22;10245;51.344;6.620;2022-07-09T09:59:22;26.10;62.40
20171;DHT22;10245;51.344;6.620;2022-07-09T10:01:46;26.10;61.70
20171;DHT22;10245;51.344;6.620;2022-07-09T10:04:13;26.00;62.40
20171;DHT22;10245;51.344;6.620;2022-07-09T10:06:38;26.00;60.40
20171;DHT22;10245;51.344;6.620;2022-07-09T10:09:03;25.90;63.20
20171;DHT22;10245;51.344;6.620;2022-07-09T10:11:38;25.80;60.30
20171;DHT22;10245;51.344;6.620;2022-07-09T10:14:02;25.60;61.20
20171;DHT22;10245;51.344;6.620;2022-07-09T10:16:36;25.90;63.60
20171;DHT22;10245;51.344;6.620;2022-07-09T10:19:01;25.90;61.10
20171;DHT22;10245;51.344;6.620;2022-07-09T10:21:34;26.00;62.80
20171;DHT22;10245;51.344;6.620;2022-07-09T10:23:59;25.90;61.10
20171;DHT22;10245;51.344;6.620;2022-07-09T10:26:23;25.80;62.30
20171;DHT22;10245;51.344;6.620;2022-07-09T10:28:59;25.50;61.70
20171;DHT22;10245;51.344;6.620;2022-07-09T10:31:23;25.70;63.30
20171;DHT22;10245;51.344;6.620;2022-07-09T10:33:48;25.70;63.20
20171;DHT22;10245;51.344;6.620;2022-07-09T10:36:27;25.80;63.50
20171;DHT22;10245;51.344;6.620;2022-07-09T10:38:55;26.20;61.90
20171;DHT22;10245;51.344;6.620;2022-07-09T10:41:21;26.10;64.00
20171;DHT22;10245;51.344;6.620;2022-07-09T10:43:50;26.00;62.80
20171;DHT22;10245;51.344;6.620;2022-07-09T10:46:15;26.20;63.50
20171;DHT22;10245;51.344;6.620;2022-07-09T10:48:38;26.40;59.80
20171;DHT22;10245;51.344;6.620;2022-07-09T10:51:03;26.50;59.80
20171;DHT22;10245;51.344;6.620;2022-07-09T10:53:28;26.70;59.80
20171;DHT22;10245;51.344;6.620;2022-07-09T10:55:54;26.60;60.60
20171;DHT22;10245;51.344;6.620;2022-07-09T10:58:18;26.50;59.20
20171;DHT22;10245;51.344;6.620;2022-07-09T11:00:54;26.60;60.30
20171;DHT22;10245;51.344;6.620;2022-07-09T11:03:24;26.50;60.00
20171;DHT22;10245;51.344;6.620;2022-07-09T11:05:48;26.20;62.40
20171;DHT22;10245;51.344;6.620;2022-07-09T11:08:12;26.30;62.40
20171;DHT22;10245;51.344;6.620;2022-07-09T11:10:38;26.20;63.70
20171;DHT22;10245;51.344;6.620;2022-07-09T11:13:09;26.10;62.60
20171;DHT22;10245;51.344;6.620;2022-07-09T11:15:34;26.10;63.40
20171;DHT22;10245;51.344;6.620;2022-07-09T11:17:59;26.10;64.30
20171;DHT22;10245;51.344;6.620;2022-07-09T11:20:24;25.90;63.00
20171;DHT22;10245;51.344;6.620;2022-07-09T11:22:48;26.10;62.40
20171;DHT22;10245;51.344;6.620;2022-07-09T11:25:18;26.00;63.70
20171;DHT22;10245;51.344;6.620;2022-07-09T11:27:42;26.00;62.70
20171;DHT22;10245;51.344;6.620;2022-07-09T11:30:12;25.90;62.90
20171;DHT22;10245;51.344;6.620;2022-07-09T11:32:36;26.20;63.40
20171;DHT22;10245;51.344;6.620;2022-07-09T11:35:00;26.20;62.50
20171;DHT22;10245;51.344;6.620;2022-07-09T11:37:24;26.30;62.00
20171;DHT22;10245;51.344;6.620;2022-07-09T11:39:51;26.30;64.30
20171;DHT22;10245;51.344;6.620;2022-07-09T11:42:17;25.70;62.00
20171;DHT22;10245;51.344;6.620;2022-07-09T11:44:41;25.90;64.30
20171;DHT22;10245;51.344;6.620;2022-07-09T11:47:08;25.90;63.40
20171;DHT22;10245;51.344;6.620;2022-07-09T11:49:37;26.10;65.90
20171;DHT22;10245;51.344;6.620;2022-07-09T11:52:02;26.10;63.40
20171;DHT22;10245;51.344;6.620;2022-07-09T11:54:29;26.20;63.60
20171;DHT22;10245;51.344;6.620;2022-07-09T11:56:53;26.40;63.20
20171;DHT22;10245;51.344;6.620;2022-07-09T11:59:25;26.80;63.70
20171;DHT22;10245;51.344;6.620;2022-07-09T12:01:49;26.50;61.00
20171;DHT22;10245;51.344;6.620;2022-07-09T12:04:19;26.70;62.10
20171;DHT22;10245;51.344;6.620;2022-07-09T12:06:47;26.60;61.00
20171;DHT22;10245;51.344;6.620;2022-07-09T12:09:11;26.80;63.30
20171;DHT22;10245;51.344;6.620;2022-07-09T12:11:35;26.60;61.40
20171;DHT22;10245;51.344;6.620;2022-07-09T12:13:59;26.80;60.30
20171;DHT22;10245;51.344;6.620;2022-07-09T12:16:22;27.10;62.80
20171;DHT22;10245;51.344;6.620;2022-07-09T12:18:46;27.20;62.80
20171;DHT22;10245;51.344;6.620;2022-07-09T12:21:11;26.80;60.40
20171;DHT22;10245;51.344;6.620;2022-07-09T12:23:35;26.60;61.20
20171;DHT22;10245;51.344;6.620;2022-07-09T12:26:05;26.80;60.60
20171;DHT22;10245;51.344;6.620;2022-07-09T12:28:29;26.70;61.50
20171;DHT22;10245;51.344;6.620;2022-07-09T12:30:52;26.30;63.20
20171;DHT22;10245;51.344;6.620;2022-07-09T12:33:16;26.30;63.30
20171;DHT22;10245;51.344;6.620;2022-07-09T12:35:44;26.60;61.30
20171;DHT22;10245;51.344;6.620;2022-07-09T12:38:09;27.00;60.90
20171;DHT22;10245;51.344;6.620;2022-07-09T12:40:33;26.90;60.40
20171;DHT22;10245;51.344;6.620;2022-07-09T12:42:56;26.50;60.00
20171;DHT22;10245;51.344;6.620;2022-07-09T12:45:30;26.10;61.60
20171;DHT22;10245;51.344;6.620;2022-07-09T12:48:16;26.20;63.70
20171;DHT22;10245;51.344;6.620;2022-07-09T12:50:40;26.30;62.70
20171;DHT22;10245;51.344;6.620;2022-07-09T12:53:03;26.00;64.20
20171;DHT22;10245;51.344;6.620;2022-07-09T12:55:29;26.10;65.10
20171;DHT22;10245;51.344;6.620;2022-07-09T12:58:12;26.10;64.60
20171;DHT22;10245;51.344;6.620;2022-07-09T13:00:36;26.30;62.80
20171;DHT22;10245;51.344;6.620;2022-07-09T13:03:00;26.40;62.20
20171;DHT22;10245;51.344;6.620;2022-07-09T13:05:23;26.50;62.80
20171;DHT22;10245;51.344;6.620;2022-07-09T13:07:47;26.40;64.10
20171;DHT22;10245;51.344;6.620;2022-07-09T13:10:11;26.20;62.40
20171;DHT22;10245;51.344;6.620;2022-07-09T13:12:36;25.70;65.10
20171;DHT22;10245;51.344;6.620;2022-07-09T13:15:00;25.00;66.70
20171;DHT22;10245;51.344;6.620;2022-07-09T13:17:23;25.70;66.10
20171;DHT22;10245;51.344;6.620;2022-07-09T13:19:53;26.00;66.30
20171;DHT22;10245;51.344;6.620;2022-07-09T13:22:17;25.70;66.80
20171;DHT22;10245;51.344;6.620;2022-07-09T13:24:40;25.80;66.00
20171;DHT22;10245;51.344;6.620;2022-07-09T13:27:04;25.70;65.60
20171;DHT22;10245;51.344;6.620;2022-07-09T13:29:33;25.70;65.00
20171;DHT22;10245;51.344;6.620;2022-07-09T13:31:57;25.30;65.20
20171;DHT22;10245;51.344;6.620;2022-07-09T13:34:20;25.50;63.80
20171;DHT22;10245;51.344;6.620;2022-07-09T13:36:44;25.50;64.70
20171;DHT22;10245;51.344;6.620;2022-07-09T13:39:07;25.80;62.10
20171;DHT22;10245;51.344;6.620;2022-07-09T13:41:31;25.90;61.20
20171;DHT22;10245;51.344;6.620;2022-07-09T13:43:55;25.70;62.60
20171;DHT22;10245;51.344;6.620;2022-07-09T13:46:20;25.80;63.80
20171;DHT22;10245;51.344;6.620;2022-07-09T13:48:44;26.00;63.00
20171;DHT22;10245;51.344;6.620;2022-07-09T13:51:07;26.40;60.60
20171;DHT22;10245;51.344;6.620;2022-07-09T13:53:31;26.60;60.00
20171;DHT22;10245;51.344;6.620;2022-07-09T13:55:55;26.70;59.20
20171;DHT22;10245;51.344;6.620;2022-07-09T13:58:19;26.40;58.60
20171;DHT22;10245;51.344;6.620;2022-07-09T14:00:42;26.30;58.90
20171;DHT22;10245;51.344;6.620;2022-07-09T14:03:08;25.40;61.00
20171;DHT22;10245;51.344;6.620;2022-07-09T14:05:32;25.50;62.70
20171;DHT22;10245;51.344;6.620;2022-07-09T14:07:56;25.40;61.00
20171;DHT22;10245;51.344;6.620;2022-07-09T14:10:21;25.20;60.90
20171;DHT22;10245;51.344;6.620;2022-07-09T14:12:44;25.30;60.50
20171;DHT22;10245;51.344;6.620;2022-07-09T14:15:10;25.60;63.10
20171;DHT22;10245;51.344;6.620;2022-07-09T14:17:41;25.70;59.90
20171;DHT22;10245;51.344;6.620;2022-07-09T14:20:07;26.00;59.10
20171;DHT22;10245;51.344;6.620;2022-07-09T14:22:32;26.20;60.40
20171;DHT22;10245;51.344;6.620;2022-07-09T14:24:59;26.70;60.00
20171;DHT22;10245;51.344;6.620;2022-07-09T14:27:22;26.60;59.50
20171;DHT22;10245;51.344;6.620;2022-07-09T14:29:46;26.10;58.70
20171;DHT22;10245;51.344;6.620;2022-07-09T14:32:10;25.80;60.50
20171;DHT22;10245;51.344;6.620;2022-07-09T14:34:34;26.10;59.00
20171;DHT22;10245;51.344;6.620;2022-07-09T14:36:59;26.20;59.00
20171;DHT22;10245;51.344;6.620;2022-07-09T14:39:23;25.90;62.00
20171;DHT22;10245;51.344;6.620;2022-07-09T14:41:48;25.60;60.70
20171;DHT22;10245;51.344;6.620;2022-07-09T14:44:11;25.30;60.40
20171;DHT22;10245;51.344;6.620;2022-07-09T14:46:35;25.40;62.00
20171;DHT22;10245;51.344;6.620;2022-07-09T14:49:02;25.60;58.90
20171;DHT22;10245;51.344;6.620;2022-07-09T14:51:26;25.70;60.50
20171;DHT22;10245;51.344;6.620;2022-07-09T14:53:52;25.80;57.10
20171;DHT22;10245;51.344;6.620;2022-07-09T14:56:15;25.60;58.20
20171;DHT22;10245;51.344;6.620;2022-07-09T14:58:39;25.30;59.30
20171;DHT22;10245;51.344;6.620;2022-07-09T15:01:03;25.30;61.20
20171;DHT22;10245;51.344;6.620;2022-07-09T15:03:28;25.50;60.10
20171;DHT22;10245;51.344;6.620;2022-07-09T15:05:52;25.80;58.20
20171;DHT22;10245;51.344;6.620;2022-07-09T15:08:16;25.80;56.70
20171;DHT22;10245;51.344;6.620;2022-07-09T15:10:41;25.60;57.00
20171;DHT22;10245;51.344;6.620;2022-07-09T15:13:05;25.60;58.50
20171;DHT22;10245;51.344;6.620;2022-07-09T15:15:28;25.40;57.40